Buffville, Kansas
Current Conditions -  °F | °C
As of 2:52 AM on Thursday 27 Nov 2014 (Local Time) from KPPF Reporting Station
Clear Clear  
Wind Chill: 21°   Ceiling: Unl
Heat Index: 26°   Visibility: 10mi
Dew Point: 21°   Wind: 5mph
Humidity: 81%   Direction: 10°N
Pressure: 30.48"   Gusts: NA
Location:  37.428°N, 95.6341°W
Report Text: KPPF 270852Z AUTO 01004KT 10SM CLR M03/M06 A3048 RMK AO2 SLP327 T10331061 53009
Loading
Personal Weather Stations






























Interactive Weather Map New forecast layout! Learn more

10-Day Weather Forecast

Advertisements
Track Severe Weather on mobile